Time;durP1;ratioP1;P1;durP2;ratioP2;P2;SDS_P1;SDS_P2;PMS_P1;PMS_P2;Temp;Humidity;BMP_temperature;BMP_pressure;BME280_temperature;BME280_humidity;BME280_pressure;Samples;Min_cycle;Max_cycle;Signal;HPM_P1;HPM_P2
2022/06/26 00:00:35;;;;;;;7.68;6.85;;;;;;;18.70;89.49;100553.97;4986614;28;20133;-73
2022/06/26 00:03:00;;;;;;;6.88;6.28;;;;;;;18.68;89.71;100525.69;5008037;27;20245;-72
2022/06/26 00:05:26;;;;;;;7.80;7.10;;;;;;;18.67;91.78;100518.66;4988600;27;20013;-73
2022/06/26 00:07:51;;;;;;;7.32;6.72;;;;;;;18.56;92.47;100524.56;5013173;27;20494;-73
2022/06/26 00:10:17;;;;;;;6.57;5.97;;;;;;;18.61;91.86;100517.59;5017614;27;20104;-74
2022/06/26 00:12:42;;;;;;;6.35;5.75;;;;;;;18.54;90.98;100511.34;5008073;27;20088;-74
2022/06/26 00:15:08;;;;;;;6.60;6.07;;;;;;;18.61;92.58;100508.72;5025084;27;20040;-72
2022/06/26 00:17:33;;;;;;;6.18;5.78;;;;;;;18.60;92.13;100507.06;5027920;27;20031;-71
2022/06/26 00:19:59;;;;;;;6.43;5.93;;;;;;;18.48;92.47;100507.59;5007636;27;20788;-73
2022/06/26 00:22:24;;;;;;;6.25;5.80;;;;;;;18.49;92.88;100487.84;4994998;27;20120;-74
2022/06/26 00:24:50;;;;;;;6.63;6.03;;;;;;;18.47;92.87;100497.09;5005341;27;20094;-73
2022/06/26 00:27:15;;;;;;;6.75;5.93;;;;;;;18.41;92.39;100504.06;5009098;27;20020;-70
2022/06/26 00:29:41;;;;;;;6.97;6.38;;;;;;;18.44;93.80;100517.06;5026400;27;20960;-70
2022/06/26 00:32:07;;;;;;;6.50;5.95;;;;;;;18.38;93.04;100523.19;5029064;27;20244;-74
2022/06/26 00:34:32;;;;;;;6.85;6.30;;;;;;;18.47;92.18;100527.41;5027282;27;20849;-74
2022/06/26 00:36:58;;;;;;;6.38;5.90;;;;;;;18.42;92.34;100532.50;5030712;27;20082;-73
2022/06/26 00:39:23;;;;;;;6.00;5.50;;;;;;;18.38;92.02;100527.75;5001178;27;20052;-72
2022/06/26 00:41:51;;;;;;;5.90;5.50;;;;;;;18.23;92.34;100519.78;5010401;27;20027;-70
2022/06/26 00:44:21;;;;;;;6.20;5.60;;;;;;;18.06;93.21;100529.91;5029956;27;20089;-73
2022/06/26 00:46:47;;;;;;;6.20;5.75;;;;;;;18.05;93.62;100534.47;5026378;27;20621;-72
2022/06/26 00:49:12;;;;;;;6.20;5.80;;;;;;;18.02;93.42;100516.06;5009374;27;20560;-74
2022/06/26 00:51:40;;;;;;;6.75;5.95;;;;;;;17.95;94.57;100525.91;4994295;27;20057;-74
2022/06/26 00:54:06;;;;;;;6.32;5.93;;;;;;;17.98;94.43;100528.22;4992153;27;20073;-73
2022/06/26 00:56:32;;;;;;;6.45;6.05;;;;;;;17.81;95.73;100522.22;5026256;27;20013;-74
2022/06/26 00:58:57;;;;;;;6.10;5.60;;;;;;;17.84;94.95;100524.53;5009692;27;20040;-72
2022/06/26 01:01:22;;;;;;;5.93;5.45;;;;;;;17.93;95.19;100534.13;5027997;27;20017;-70
2022/06/26 01:03:48;;;;;;;6.63;5.95;;;;;;;18.07;95.23;100521.69;5027723;27;20212;-71
2022/06/26 01:06:13;;;;;;;6.43;6.00;;;;;;;17.85;94.44;100535.06;5009636;27;20431;-72
2022/06/26 01:08:39;;;;;;;6.50;5.82;;;;;;;17.83;94.87;100546.97;5004903;27;20061;-72
2022/06/26 01:11:17;;;;;;;6.15;5.65;;;;;;;17.88;96.15;100549.06;5023430;27;20070;-72
2022/06/26 01:13:46;;;;;;;6.25;5.85;;;;;;;17.83;95.92;100546.97;4995245;27;20013;-73
2022/06/26 01:16:16;;;;;;;6.20;5.80;;;;;;;17.70;96.19;100550.31;5007895;27;20730;-73
2022/06/26 01:18:43;;;;;;;6.72;6.22;;;;;;;17.63;97.49;100554.78;4986540;28;20002;-73
2022/06/26 01:21:08;;;;;;;6.82;6.32;;;;;;;17.73;97.33;100560.66;5001921;28;20017;-72
2022/06/26 01:23:34;;;;;;;7.07;6.47;;;;;;;17.67;97.27;100564.91;5006447;28;20028;-70
2022/06/26 01:25:59;;;;;;;7.25;6.55;;;;;;;17.65;97.67;100552.72;4987799;28;20613;-73
2022/06/26 01:28:25;;;;;;;7.10;6.50;;;;;;;17.55;97.34;100571.75;5003696;28;20409;-73
2022/06/26 01:30:50;;;;;;;6.68;6.10;;;;;;;17.65;96.83;100577.66;4986701;28;20884;-72
2022/06/26 01:33:16;;;;;;;7.43;6.82;;;;;;;17.71;97.05;100575.22;4989126;28;20013;-73
2022/06/26 01:35:41;;;;;;;7.93;7.22;;;;;;;17.76;96.54;100583.53;5006514;28;20022;-70
2022/06/26 01:38:14;;;;;;;7.55;6.90;;;;;;;17.74;95.98;100591.75;4983661;27;19993;-70
2022/06/26 01:40:39;;;;;;;9.25;6.32;;;;;;;17.68;95.45;100605.88;5004678;28;21031;-74
2022/06/26 01:43:05;;;;;;;7.88;6.45;;;;;;;17.63;95.92;100595.72;4971882;28;20021;-73
2022/06/26 01:45:30;;;;;;;7.38;6.65;;;;;;;17.61;96.81;100603.13;5002867;27;20001;-73
2022/06/26 01:47:56;;;;;;;6.88;6.38;;;;;;;17.68;96.80;100616.56;4988127;28;20452;-71
2022/06/26 01:50:21;;;;;;;7.30;6.75;;;;;;;17.60;96.85;100632.75;5024612;27;20128;-73
2022/06/26 01:52:46;;;;;;;7.75;7.15;;;;;;;17.57;97.14;100635.78;5012063;27;20730;-73
2022/06/26 01:55:12;;;;;;;8.43;6.85;;;;;;;17.64;96.82;100640.22;5007197;27;20020;-73
2022/06/26 01:57:37;;;;;;;8.63;7.40;;;;;;;17.64;97.39;100647.41;5006243;27;20002;-72
2022/06/26 02:00:06;;;;;;;8.23;7.50;;;;;;;17.63;97.61;100641.22;5004025;27;20046;-72
2022/06/26 02:02:31;;;;;;;8.13;7.43;;;;;;;17.64;97.74;100650.06;4987982;28;20161;-72
2022/06/26 02:04:58;;;;;;;9.93;7.50;;;;;;;17.65;98.25;100649.06;5005420;28;20390;-73
2022/06/26 02:07:24;;;;;;;8.27;7.57;;;;;;;17.74;98.01;100650.63;5017070;28;20833;-71
2022/06/26 02:15:28;;;;;;;8.18;7.57;;;;;;;17.73;96.43;100627.56;4949838;27;20017;-74
2022/06/26 02:17:54;;;;;;;8.15;7.55;;;;;;;17.93;96.73;100624.31;5004860;28;20013;-74
2022/06/26 02:20:20;;;;;;;8.45;7.75;;;;;;;17.95;95.99;100635.66;5025252;27;20783;-70
2022/06/26 02:22:45;;;;;;;9.25;8.55;;;;;;;17.90;96.16;100624.69;5027255;27;20430;-74
2022/06/26 02:25:11;;;;;;;9.38;8.45;;;;;;;17.78;96.09;100619.81;5025519;27;20025;-73
2022/06/26 02:27:36;;;;;;;9.50;8.70;;;;;;;17.88;96.33;100618.66;4992511;27;20656;-72
2022/06/26 02:30:02;;;;;;;9.05;6.70;;;;;;;17.67;95.24;100636.34;4978921;28;20029;-73
2022/06/26 02:32:27;;;;;;;8.43;6.00;;;;;;;17.57;95.37;100625.06;4991723;28;20014;-72
2022/06/26 02:34:52;;;;;;;6.43;5.53;;;;;;;17.56;95.29;100621.56;5008676;28;21038;-73
2022/06/26 02:37:18;;;;;;;6.57;5.88;;;;;;;17.51;96.41;100621.28;5012207;27;20077;-74
2022/06/26 02:39:43;;;;;;;6.90;6.30;;;;;;;17.46;95.55;100610.34;5016205;27;20032;-73
2022/06/26 02:42:09;;;;;;;6.75;6.15;;;;;;;17.31;96.11;100597.78;4991886;27;20005;-73
2022/06/26 02:44:34;;;;;;;7.00;5.82;;;;;;;17.31;95.52;100591.59;5010694;27;20025;-72
2022/06/26 02:47:00;;;;;;;6.55;6.03;;;;;;;17.22;95.67;100590.88;5030776;27;20118;-72
2022/06/26 02:49:25;;;;;;;7.32;6.78;;;;;;;17.24;95.37;100604.88;5007514;27;20373;-73
2022/06/26 02:51:51;;;;;;;7.60;7.10;;;;;;;17.25;95.63;100603.06;4988767;28;20005;-73
2022/06/26 02:54:17;;;;;;;9.02;8.25;;;;;;;17.18;96.50;100608.31;4988351;27;20005;-73
2022/06/26 02:56:42;;;;;;;8.88;8.18;;;;;;;17.24;96.27;100607.56;4989257;28;20040;-71
2022/06/26 02:59:07;;;;;;;8.70;8.00;;;;;;;17.36;95.85;100601.75;5023127;27;20045;-70
2022/06/26 03:01:33;;;;;;;7.50;7.00;;;;;;;17.39;94.38;100593.38;5026017;27;20441;-73
2022/06/26 03:03:58;;;;;;;7.20;6.70;;;;;;;17.35;94.31;100608.94;5025775;27;20005;-74
2022/06/26 03:06:24;;;;;;;7.22;6.32;;;;;;;17.43;93.40;100616.88;5026460;27;20050;-73
2022/06/26 03:08:49;;;;;;;7.10;6.60;;;;;;;17.22;94.00;100630.13;5025579;27;20057;-73
2022/06/26 03:11:14;;;;;;;7.78;7.18;;;;;;;17.14;94.80;100639.09;5026354;27;20029;-70
2022/06/26 03:13:40;;;;;;;8.15;7.55;;;;;;;17.10;95.45;100627.09;5027299;27;20009;-70
2022/06/26 03:16:05;;;;;;;7.93;7.25;;;;;;;17.19;95.28;100633.19;5008658;27;20510;-74
2022/06/26 03:18:31;;;;;;;8.15;7.38;;;;;;;17.11;95.24;100640.28;5028899;27;20611;-72
2022/06/26 03:20:56;;;;;;;8.02;7.47;;;;;;;17.03;95.54;100645.69;5024405;27;20021;-74
2022/06/26 03:24:00;;;;;;;8.68;7.97;;;;;;;17.01;95.95;100650.41;5008494;27;20016;-72
2022/06/26 03:26:07;;;;;;;9.25;8.55;;;;;;;16.95;96.12;100653.78;5028321;27;20022;-70
2022/06/26 03:28:32;;;;;;;7.60;7.00;;;;;;;17.00;95.70;100664.78;5027481;27;20886;-70
2022/06/26 03:30:58;;;;;;;7.85;7.22;;;;;;;17.04;95.48;100662.59;5007016;27;20445;-73
2022/06/26 03:33:23;;;;;;;7.38;6.88;;;;;;;16.93;95.57;100655.84;5008153;27;20952;-73
2022/06/26 03:35:49;;;;;;;7.07;6.57;;;;;;;16.78;96.17;100653.91;4988931;27;20009;-72
2022/06/26 03:38:15;;;;;;;8.43;6.85;;;;;;;16.75;95.88;100656.97;5009407;27;20022;-73
2022/06/26 03:40:40;;;;;;;6.95;6.47;;;;;;;16.76;95.68;100669.28;5021315;27;20731;-71
2022/06/26 03:43:09;;;;;;;8.13;7.32;;;;;;;16.67;95.83;100659.69;5021906;27;20009;-72
2022/06/26 03:45:34;;;;;;;7.97;7.18;;;;;;;16.61;95.76;100660.38;5027007;27;20631;-72
2022/06/26 03:48:00;;;;;;;7.85;6.63;;;;;;;16.59;95.62;100668.59;5028829;27;20009;-70
2022/06/26 03:50:25;;;;;;;8.15;7.55;;;;;;;16.57;95.96;100672.44;5025745;27;20141;-73
2022/06/26 03:52:51;;;;;;;8.38;7.78;;;;;;;16.66;96.12;100677.53;5028720;27;20939;-72
2022/06/26 03:55:16;;;;;;;8.55;6.70;;;;;;;16.71;96.10;100674.34;4980349;27;20005;-73
2022/06/26 03:57:42;;;;;;;7.55;6.97;;;;;;;16.70;96.01;100691.41;5016476;27;20021;-73
2022/06/26 04:00:08;;;;;;;8.13;7.30;;;;;;;16.71;96.62;100693.06;5011916;27;20036;-70
2022/06/26 04:02:33;;;;;;;8.23;7.63;;;;;;;16.77;96.79;100692.34;5028335;27;20807;-74
2022/06/26 04:04:59;;;;;;;8.13;7.50;;;;;;;16.82;97.19;100691.78;5034030;27;20913;-73
2022/06/26 04:07:24;;;;;;;7.75;7.03;;;;;;;16.94;96.55;100687.72;5018654;27;20124;-73
2022/06/26 04:09:49;;;;;;;8.43;6.28;;;;;;;17.00;95.70;100691.53;5026966;27;20020;-74
2022/06/26 04:12:15;;;;;;;5.97;5.57;;;;;;;17.06;95.72;100688.13;5029180;27;20013;-71
2022/06/26 04:14:41;;;;;;;4.32;4.00;;;;;;;17.09;92.80;100695.78;5025163;27;20005;-70
2022/06/26 04:17:06;;;;;;;4.30;4.00;;;;;;;17.13;92.55;100701.59;5008216;27;20407;-73
2022/06/26 04:19:32;;;;;;;3.70;3.40;;;;;;;17.19;92.43;100694.69;5006710;27;20925;-74
2022/06/26 04:21:57;;;;;;;3.10;2.90;;;;;;;17.35;90.17;100705.25;5025235;27;20029;-73
2022/06/26 04:24:23;;;;;;;3.78;3.28;;;;;;;17.39;90.57;100695.84;5009800;27;20028;-71
2022/06/26 04:26:48;;;;;;;3.55;3.25;;;;;;;17.41;90.36;100698.31;5013566;27;20084;-70
2022/06/26 04:29:14;;;;;;;2.97;2.78;;;;;;;17.28;90.69;100694.44;5004979;28;20314;-73
2022/06/26 04:31:39;;;;;;;3.05;2.95;;;;;;;17.37;91.10;100691.69;5006983;27;20567;-74
2022/06/26 04:34:05;;;;;;;2.97;2.78;;;;;;;17.37;90.66;100695.19;5000437;28;20458;-74
2022/06/26 04:36:30;;;;;;;3.20;3.00;;;;;;;17.35;91.50;100691.88;4987758;28;20024;-73
2022/06/26 04:38:55;;;;;;;3.60;3.10;;;;;;;17.39;91.37;100698.50;4990805;28;20021;-70
2022/06/26 04:41:36;;;;;;;3.80;3.17;;;;;;;17.39;90.14;100701.19;5005724;28;19998;-70
2022/06/26 04:44:03;;;;;;;3.53;2.85;;;;;;;17.52;90.98;100703.22;5013556;27;20013;-74
2022/06/26 04:46:29;;;;;;;4.35;2.80;;;;;;;17.64;90.43;100708.94;5011460;27;20028;-70
2022/06/26 04:48:54;;;;;;;2.90;2.70;;;;;;;17.74;89.34;100709.50;5027804;27;20277;-71
2022/06/26 04:51:19;;;;;;;3.28;2.97;;;;;;;17.81;88.68;100720.28;5025019;27;20514;-74
2022/06/26 04:53:45;;;;;;;4.20;3.00;;;;;;;17.88;88.33;100720.38;5009395;27;20557;-73
2022/06/26 04:56:10;;;;;;;2.92;2.67;;;;;;;17.90;86.68;100735.25;4991275;27;20005;-73
2022/06/26 04:58:36;;;;;;;3.10;2.80;;;;;;;17.92;86.52;100721.72;5028453;27;20157;-73
2022/06/26 05:01:02;;;;;;;2.60;2.50;;;;;;;18.05;86.25;100729.06;4990866;27;20882;-70
2022/06/26 05:03:28;;;;;;;3.30;2.55;;;;;;;18.11;85.04;100731.84;5017510;27;20479;-72
2022/06/26 05:05:53;;;;;;;4.78;2.70;;;;;;;18.21;83.11;100733.41;5008033;27;20866;-72
2022/06/26 05:08:19;;;;;;;4.28;2.50;;;;;;;18.26;83.40;100723.81;5027115;27;20021;-71
2022/06/26 05:10:44;;;;;;;2.70;2.50;;;;;;;18.29;81.22;100727.94;5007943;27;20012;-71
2022/06/26 05:13:10;;;;;;;2.85;2.65;;;;;;;18.32;82.47;100732.94;5026919;27;20446;-71
2022/06/26 05:15:35;;;;;;;3.47;2.40;;;;;;;18.35;82.72;100740.59;5008159;27;20021;-72
2022/06/26 05:18:01;;;;;;;2.60;2.40;;;;;;;18.40;81.69;100738.16;5009615;27;20009;-73
2022/06/26 05:20:26;;;;;;;3.28;2.45;;;;;;;18.35;80.08;100735.22;5008072;27;20029;-72
2022/06/26 05:22:51;;;;;;;2.65;2.10;;;;;;;18.42;78.81;100732.63;5010736;27;20128;-72
2022/06/26 05:25:17;;;;;;;2.35;2.15;;;;;;;18.43;78.86;100745.84;5024203;27;20109;-69
2022/06/26 05:27:42;;;;;;;2.10;2.00;;;;;;;18.60;78.33;100729.50;5009743;27;20112;-71
2022/06/26 05:30:08;;;;;;;2.65;2.08;;;;;;;18.74;79.30;100727.81;5008887;27;20326;-72
2022/06/26 05:32:34;;;;;;;2.72;2.00;;;;;;;18.80;78.43;100729.75;4999391;27;20884;-72
2022/06/26 05:35:00;;;;;;;3.22;2.00;;;;;;;18.72;77.58;100730.69;5027325;27;20035;-73
2022/06/26 05:37:25;;;;;;;5.13;2.30;;;;;;;18.67;78.78;100738.44;5010428;27;20486;-71
2022/06/26 05:39:50;;;;;;;2.53;2.33;;;;;;;18.65;79.59;100735.13;5027243;27;20101;-72
2022/06/26 05:42:16;;;;;;;2.95;2.60;;;;;;;18.66;80.34;100745.66;5025186;27;20001;-72
2022/06/26 05:44:41;;;;;;;3.25;2.80;;;;;;;18.53;80.30;100746.34;4989847;28;20227;-73
2022/06/26 05:47:07;;;;;;;3.13;2.92;;;;;;;18.55;81.62;100751.53;5009315;28;20013;-72
2022/06/26 05:49:32;;;;;;;4.95;2.70;;;;;;;18.56;81.75;100761.22;5022756;27;20029;-71
2022/06/26 05:51:57;;;;;;;4.68;2.40;;;;;;;18.42;81.55;100762.94;5029181;27;20469;-71
2022/06/26 05:54:23;;;;;;;3.63;2.65;;;;;;;18.44;82.02;100768.91;5032274;27;20009;-73
2022/06/26 05:56:48;;;;;;;2.83;2.63;;;;;;;18.42;81.93;100776.31;5026544;27;20009;-72
2022/06/26 05:59:14;;;;;;;3.35;2.20;;;;;;;18.32;79.84;100781.97;5032546;27;20072;-72
2022/06/26 06:01:39;;;;;;;2.45;2.00;;;;;;;18.33;79.39;100785.47;5025988;27;20135;-71
2022/06/26 06:04:05;;;;;;;3.47;2.60;;;;;;;18.36;79.97;100791.31;5023742;28;20910;-72
2022/06/26 06:06:31;;;;;;;2.10;2.00;;;;;;;18.39;79.92;100786.56;5028102;27;20445;-73
2022/06/26 06:08:56;;;;;;;2.00;1.90;;;;;;;18.51;79.52;100790.44;5030662;28;20870;-72
2022/06/26 06:11:22;;;;;;;3.15;2.20;;;;;;;18.45;78.66;100792.03;4994428;28;20096;-72
2022/06/26 06:13:47;;;;;;;3.20;2.10;;;;;;;18.28;79.02;100796.75;5000721;28;20060;-72
2022/06/26 06:16:12;;;;;;;2.15;2.05;;;;;;;18.40;79.13;100809.69;5016787;28;20597;-71
2022/06/26 06:18:38;;;;;;;5.18;2.38;;;;;;;18.36;78.94;100811.91;5025687;27;20009;-72
2022/06/26 06:21:03;;;;;;;2.00;1.90;;;;;;;18.41;78.18;100811.34;5039007;27;20590;-73
2022/06/26 06:23:29;;;;;;;2.92;2.10;;;;;;;18.35;78.97;100812.91;5020129;28;20017;-74
2022/06/26 06:25:55;;;;;;;3.20;1.98;;;;;;;18.41;79.49;100817.53;5019641;28;20025;-73
2022/06/26 06:28:20;;;;;;;2.38;1.77;;;;;;;18.44;78.61;100827.03;5039084;28;20029;-71
2022/06/26 06:30:46;;;;;;;2.83;1.77;;;;;;;18.33;77.20;100842.59;5039235;27;20017;-71
2022/06/26 06:33:11;;;;;;;1.90;1.80;;;;;;;18.32;75.78;100842.78;5020387;28;20372;-72
2022/06/26 06:35:37;;;;;;;3.05;1.65;;;;;;;18.30;76.25;100847.47;5019762;28;20105;-73
2022/06/26 06:38:02;;;;;;;1.77;1.60;;;;;;;18.39;75.62;100845.50;5018816;28;20070;-73
2022/06/26 06:40:29;;;;;;;1.85;1.50;;;;;;;18.49;76.51;100833.50;5035665;27;20024;-71
2022/06/26 06:42:55;;;;;;;2.20;2.00;;;;;;;18.57;76.49;100855.84;5027636;28;21103;-73
2022/06/26 06:45:20;;;;;;;2.92;2.00;;;;;;;18.54;74.96;100852.53;5022140;27;20009;-72
2022/06/26 06:47:46;;;;;;;3.75;2.13;;;;;;;18.60;74.55;100863.50;5025512;27;20013;-73
2022/06/26 06:50:11;;;;;;;2.22;1.88;;;;;;;18.65;74.18;100863.78;5010013;27;20009;-73
2022/06/26 06:52:36;;;;;;;2.15;2.00;;;;;;;18.81;74.45;100881.50;5035156;27;20127;-72
2022/06/26 06:55:03;;;;;;;2.45;1.98;;;;;;;18.87;73.77;100889.66;5041733;27;20017;-72
2022/06/26 06:57:29;;;;;;;2.42;1.90;;;;;;;18.76;72.82;100894.66;5015692;28;20002;-72
2022/06/26 06:59:54;;;;;;;3.03;2.15;;;;;;;18.69;72.25;100894.56;5037598;27;20037;-73
2022/06/26 07:02:19;;;;;;;2.50;1.77;;;;;;;18.63;72.24;100896.16;5033771;27;20042;-73
2022/06/26 07:04:45;;;;;;;1.92;1.60;;;;;;;18.52;71.40;100892.09;5031006;27;20241;-74
2022/06/26 07:07:10;;;;;;;2.10;1.70;;;;;;;18.56;71.00;100878.31;5039673;27;20015;-74
2022/06/26 07:09:36;;;;;;;2.65;1.60;;;;;;;18.52;69.23;100873.31;5035466;27;20021;-73
2022/06/26 07:12:01;;;;;;;1.58;1.25;;;;;;;18.65;69.63;100877.19;5023477;27;20020;-73
2022/06/26 07:14:27;;;;;;;2.45;1.65;;;;;;;18.67;69.93;100881.34;5036336;27;20155;-72
2022/06/26 07:16:52;;;;;;;1.40;1.30;;;;;;;18.71;67.59;100896.06;5030754;27;20025;-73
2022/06/26 07:19:18;;;;;;;1.38;1.25;;;;;;;18.77;66.16;100896.31;5033851;27;20201;-73
2022/06/26 07:21:43;;;;;;;1.48;1.08;;;;;;;18.66;66.31;100890.41;5031809;27;20385;-73
2022/06/26 07:24:12;;;;;;;6.45;1.73;;;;;;;18.77;66.52;100878.38;5031169;27;20017;-74
2022/06/26 07:26:38;;;;;;;1.30;1.20;;;;;;;18.71;67.52;100887.16;5011312;27;20080;-74
2022/06/26 07:29:03;;;;;;;1.75;1.35;;;;;;;18.60;66.33;100890.31;4995938;27;20473;-73
2022/06/26 07:31:29;;;;;;;1.25;1.13;;;;;;;18.58;67.96;100884.31;4996381;27;20124;-71
2022/06/26 07:34:12;;;;;;;1.55;1.33;;;;;;;18.61;66.91;100882.09;5000214;27;20017;-73
2022/06/26 07:36:38;;;;;;;1.58;1.48;;;;;;;18.78;66.52;100882.75;5015472;27;20025;-73
2022/06/26 07:39:04;;;;;;;2.38;1.55;;;;;;;18.84;66.00;100876.63;5015917;27;20163;-73
2022/06/26 07:41:29;;;;;;;1.75;1.60;;;;;;;18.97;66.66;100880.50;5012925;27;20817;-73
2022/06/26 07:43:55;;;;;;;1.40;1.30;;;;;;;18.98;67.14;100871.41;5011038;27;20749;-73
2022/06/26 07:46:21;;;;;;;1.95;1.15;;;;;;;19.06;65.93;100890.09;4998750;27;20277;-74
2022/06/26 07:48:46;;;;;;;1.42;1.10;;;;;;;19.18;65.51;100888.56;4993931;27;20125;-73
2022/06/26 07:51:12;;;;;;;1.95;1.10;;;;;;;19.21;65.51;100882.81;5034597;27;20029;-73
2022/06/26 07:53:37;;;;;;;1.60;1.20;;;;;;;19.33;67.43;100880.47;5032830;27;20292;-72
2022/06/26 07:56:03;;;;;;;1.40;1.30;;;;;;;19.43;67.83;100890.06;5024429;27;20021;-71
2022/06/26 07:58:29;;;;;;;1.40;1.30;;;;;;;19.49;66.75;100898.19;5035958;27;20232;-73
2022/06/26 08:00:54;;;;;;;2.55;1.40;;;;;;;19.56;66.66;100891.00;5016476;27;20033;-73
2022/06/26 08:03:20;;;;;;;1.38;1.20;;;;;;;19.41;65.62;100909.03;5015463;27;20649;-72
2022/06/26 08:05:46;;;;;;;2.05;1.40;;;;;;;19.47;66.93;100907.44;5001406;28;20025;-73
2022/06/26 08:08:12;;;;;;;1.35;1.35;;;;;;;19.32;66.86;100908.34;4993869;27;20572;-73
2022/06/26 08:10:38;;;;;;;1.40;1.30;;;;;;;19.41;66.96;100911.72;4997282;27;20499;-71
2022/06/26 08:13:04;;;;;;;1.50;1.40;;;;;;;19.36;67.17;100912.28;4985626;27;20032;-72
2022/06/26 08:15:29;;;;;;;1.40;1.30;;;;;;;19.34;67.54;100911.63;4994605;27;20222;-72
2022/06/26 08:17:55;;;;;;;2.03;1.40;;;;;;;19.38;65.79;100926.34;4993379;27;20571;-74
2022/06/26 08:20:20;;;;;;;2.33;1.40;;;;;;;19.35;66.40;100916.00;4989369;27;20632;-73
2022/06/26 08:22:46;;;;;;;1.60;1.20;;;;;;;19.38;67.08;100920.97;4994243;27;20077;-72
2022/06/26 08:25:11;;;;;;;2.72;1.38;;;;;;;19.52;67.09;100923.81;4994385;27;20467;-72
2022/06/26 08:27:37;;;;;;;2.47;1.52;;;;;;;19.71;66.52;100925.00;5032259;27;20151;-73
2022/06/26 08:30:03;;;;;;;1.35;1.25;;;;;;;19.81;65.68;100916.66;5038647;27;20326;-70
2022/06/26 08:32:28;;;;;;;1.67;1.42;;;;;;;20.05;65.49;100927.00;4995118;27;20340;-71
2022/06/26 08:34:54;;;;;;;1.70;1.30;;;;;;;20.15;64.08;100925.78;5009581;27;20322;-73
2022/06/26 08:37:19;;;;;;;1.60;1.50;;;;;;;20.35;63.56;100925.97;5021601;27;20425;-72
2022/06/26 08:39:44;;;;;;;1.50;1.40;;;;;;;20.61;62.62;100924.44;5039838;27;20256;-73
2022/06/26 08:42:10;;;;;;;1.50;1.40;;;;;;;20.63;62.24;100928.59;5013296;27;20266;-72
2022/06/26 08:44:43;;;;;;;2.80;2.70;;;;;;;20.74;61.88;100929.91;5015013;27;20029;-72
2022/06/26 08:47:09;;;;;;;1.30;1.30;;;;;;;20.73;61.26;100939.84;5013617;27;20044;-73
2022/06/26 08:49:35;;;;;;;1.45;1.35;;;;;;;20.66;60.24;100936.25;5010214;27;20017;-72
2022/06/26 08:52:00;;;;;;;1.35;1.10;;;;;;;20.66;59.86;100936.25;4992385;27;20760;-71
2022/06/26 08:54:27;;;;;;;1.50;1.40;;;;;;;20.64;59.44;100937.47;4997142;27;20600;-72
2022/06/26 08:56:52;;;;;;;1.42;1.00;;;;;;;20.92;60.87;100934.75;4996814;27;20088;-72
2022/06/26 08:59:18;;;;;;;1.50;1.40;;;;;;;21.06;58.86;100946.41;5019318;27;20588;-72
2022/06/26 09:01:43;;;;;;;3.00;1.30;;;;;;;21.23;57.83;100931.53;4997484;27;20359;-72
2022/06/26 09:04:09;;;;;;;1.52;1.30;;;;;;;21.18;57.95;100938.56;5030184;27;20113;-72
2022/06/26 09:06:35;;;;;;;1.73;1.30;;;;;;;21.25;59.23;100932.19;5004134;27;20261;-72
2022/06/26 09:09:11;;;;;;;1.30;1.27;;;;;;;21.31;59.62;100930.53;5014851;27;20036;-72
2022/06/26 09:11:40;;;;;;;1.48;1.20;;;;;;;21.39;58.38;100937.59;5014554;27;20482;-73
2022/06/26 09:14:05;;;;;;;1.20;1.10;;;;;;;21.54;59.04;100940.97;5022852;27;20076;-73
2022/06/26 09:16:31;;;;;;;1.73;1.40;;;;;;;21.63;57.69;100938.06;4989357;27;20602;-72
2022/06/26 09:19:05;;;;;;;1.67;1.02;;;;;;;21.74;58.32;100934.78;5004613;27;20109;-72
2022/06/26 09:21:31;;;;;;;1.35;1.25;;;;;;;21.73;57.37;100946.56;5009937;27;20036;-73
2022/06/26 09:23:56;;;;;;;3.25;1.10;;;;;;;21.46;55.78;100941.13;4990635;28;20369;-72
2022/06/26 09:26:22;;;;;;;1.30;1.20;;;;;;;21.53;56.66;100938.47;4997157;27;20269;-72
2022/06/26 09:28:47;;;;;;;1.17;1.10;;;;;;;21.56;56.73;100938.91;5029880;27;20021;-73
2022/06/26 09:31:18;;;;;;;1.17;1.08;;;;;;;21.70;57.08;100941.59;4987993;27;20070;-73
2022/06/26 09:33:44;;;;;;;0.93;0.90;;;;;;;21.92;55.59;100939.56;5013101;27;20315;-74
2022/06/26 09:36:14;;;;;;;1.40;1.10;;;;;;;22.01;56.58;100950.94;5032966;27;20020;-72
2022/06/26 09:38:39;;;;;;;1.15;1.10;;;;;;;22.16;55.06;100956.94;4990964;27;20024;-73
2022/06/26 09:41:06;;;;;;;1.35;1.25;;;;;;;22.34;55.11;100950.94;5005663;27;20244;-73
2022/06/26 09:43:33;;;;;;;1.88;1.50;;;;;;;22.37;54.00;100944.31;5000635;28;20021;-72
2022/06/26 09:46:00;;;;;;;1.30;1.20;;;;;;;22.55;55.41;100947.19;5002663;28;19994;-72
2022/06/26 09:48:26;;;;;;;1.00;1.00;;;;;;;22.64;54.99;100955.84;5041325;27;20024;-73
2022/06/26 09:50:52;;;;;;;5.35;4.90;;;;;;;22.37;54.32;100960.50;5010409;28;20276;-71
2022/06/26 09:53:18;;;;;;;6.50;5.45;;;;;;;22.31;54.28;100964.81;5002891;27;20376;-72
2022/06/26 09:55:45;;;;;;;4.50;4.10;;;;;;;22.11;53.70;100956.72;5006559;27;20132;-72
2022/06/26 09:58:11;;;;;;;2.17;1.90;;;;;;;22.13;52.50;100963.56;5013452;27;20651;-72
2022/06/26 10:00:36;;;;;;;1.20;1.20;;;;;;;22.07;54.12;100956.34;4994029;27;20303;-72
2022/06/26 10:08:33;;;;;;;1.90;1.10;;;;;;;22.06;53.24;100970.03;5008301;28;20044;-72
2022/06/26 10:10:59;;;;;;;1.70;1.40;;;;;;;22.06;53.63;100964.63;4997660;28;20301;-72
2022/06/26 10:13:24;;;;;;;1.35;1.25;;;;;;;22.03;52.90;100963.19;5000890;27;20021;-73
2022/06/26 10:16:01;;;;;;;1.20;1.10;;;;;;;21.92;52.52;100955.72;5014325;28;20306;-71
2022/06/26 10:18:45;;;;;;;1.60;1.33;;;;;;;22.03;53.56;100962.34;5010101;28;20255;-72
2022/06/26 10:21:12;;;;;;;1.23;1.23;;;;;;;22.16;55.18;100973.13;5027760;27;20075;-74
2022/06/26 10:23:39;;;;;;;2.00;1.90;;;;;;;21.77;54.62;100970.22;5010519;28;20013;-72
2022/06/26 10:26:21;;;;;;;1.70;1.60;;;;;;;21.79;54.47;100978.09;4988159;27;20418;-73
2022/06/26 10:29:00;;;;;;;1.45;1.38;;;;;;;21.96;53.38;100973.94;4980414;28;20013;-73
2022/06/26 10:31:29;;;;;;;1.77;1.58;;;;;;;22.06;54.23;100970.03;5011327;27;20510;-72
2022/06/26 10:33:55;;;;;;;1.30;1.30;;;;;;;21.86;52.25;100970.84;5011236;28;20036;-71
2022/06/26 10:36:24;;;;;;;1.20;1.20;;;;;;;21.98;52.85;100968.34;4993505;28;20743;-72
2022/06/26 10:38:50;;;;;;;1.15;1.15;;;;;;;21.88;52.20;100968.75;5031046;28;20032;-72
2022/06/26 10:44:08;;;;;;;1.30;1.20;;;;;;;22.10;53.65;100963.19;5017377;27;20145;-72
2022/06/26 10:46:58;;;;;;;1.02;1.00;;;;;;;22.18;52.61;100962.97;4993913;27;20135;-71
2022/06/26 10:49:23;;;;;;;1.20;1.10;;;;;;;22.46;50.81;100959.22;5023586;27;20009;-73
2022/06/26 10:51:49;;;;;;;2.13;1.30;;;;;;;22.72;48.73;100960.22;4986058;27;20038;-73
2022/06/26 10:54:27;;;;;;;1.30;1.20;;;;;;;23.01;49.28;100960.72;4990747;27;20037;-71
2022/06/26 10:57:33;;;;;;;1.20;1.10;;;;;;;23.17;48.40;100959.41;5002886;27;20025;-71
2022/06/26 10:59:59;;;;;;;1.38;1.00;;;;;;;23.43;47.53;100966.56;4912970;28;20046;-72
2022/06/26 11:02:25;;;;;;;1.10;0.98;;;;;;;23.39;48.05;100962.63;5001521;27;20864;-71
2022/06/26 11:04:51;;;;;;;1.40;1.30;;;;;;;23.39;48.20;100962.63;5002567;28;20029;-72
2022/06/26 11:07:19;;;;;;;1.38;1.38;;;;;;;23.66;50.96;100964.13;5017415;28;20067;-72
2022/06/26 11:09:45;;;;;;;1.40;1.30;;;;;;;23.69;50.32;100975.53;5011679;27;20115;-72
2022/06/26 11:12:11;;;;;;;1.20;1.20;;;;;;;23.54;49.52;100973.16;5025809;27;20488;-73
2022/06/26 11:14:36;;;;;;;1.23;1.13;;;;;;;23.20;47.81;100976.03;5031476;27;20017;-70
2022/06/26 11:17:02;;;;;;;1.65;0.90;;;;;;;23.13;47.66;100975.25;5042482;27;20120;-72
2022/06/26 11:19:32;;;;;;;1.98;1.88;;;;;;;22.91;49.30;100977.34;5021634;27;20144;-72
2022/06/26 11:22:04;;;;;;;1.63;1.52;;;;;;;22.72;51.82;100968.31;5015319;27;20916;-73
2022/06/26 11:24:30;;;;;;;1.40;1.30;;;;;;;22.88;50.21;100978.59;5032115;27;20021;-69
2022/06/26 11:26:56;;;;;;;14.68;13.10;;;;;;;22.79;49.86;100974.50;5018040;27;20119;-72
2022/06/26 11:29:21;;;;;;;175.77;158.18;;;;;;;22.98;51.02;100970.91;5019102;27;20041;-71
2022/06/26 11:31:48;;;;;;;11.00;10.10;;;;;;;22.97;51.01;100977.34;5040659;27;20025;-72
2022/06/26 11:34:14;;;;;;;2.92;2.70;;;;;;;22.83;49.59;100973.03;5034829;27;20941;-72